createdAt,value
2023-06-19T00:01:26.083Z,99.90
2023-06-19T00:03:53.390Z,99.90
2023-06-19T00:06:20.941Z,99.90
2023-06-19T00:08:48.203Z,99.90
2023-06-19T00:11:15.709Z,99.90
2023-06-19T00:13:42.946Z,99.90
2023-06-19T00:16:10.639Z,99.90
2023-06-19T00:18:41.716Z,99.90
2023-06-19T00:21:10.034Z,99.90
2023-06-19T00:23:37.448Z,99.90
2023-06-19T00:26:05.383Z,99.90
2023-06-19T00:28:32.782Z,99.90
2023-06-19T00:31:01.893Z,99.90
2023-06-19T00:33:30.353Z,99.90
2023-06-19T00:35:58.136Z,99.90
2023-06-19T00:38:25.345Z,99.90
2023-06-19T00:40:52.864Z,99.90
2023-06-19T00:43:20.011Z,99.90
2023-06-19T00:45:47.668Z,99.90
2023-06-19T00:48:14.876Z,99.90
2023-06-19T00:50:42.416Z,99.90
2023-06-19T00:53:09.790Z,99.90
2023-06-19T00:55:38.584Z,99.90
2023-06-19T00:58:06.023Z,99.90
2023-06-19T01:00:33.524Z,99.90
2023-06-19T01:03:00.941Z,99.90
2023-06-19T01:05:30.164Z,99.90
2023-06-19T01:08:27.991Z,99.90
2023-06-19T01:10:59.048Z,99.90
2023-06-19T01:13:48.890Z,99.90
2023-06-19T01:16:17.506Z,99.90
2023-06-19T01:18:45.156Z,99.90
2023-06-19T01:21:17.338Z,99.90
2023-06-19T01:23:45.283Z,99.90
2023-06-19T01:26:13.474Z,99.90
2023-06-19T01:28:43.028Z,99.90
2023-06-19T01:31:20.304Z,99.90
2023-06-19T01:33:49.210Z,99.90
2023-06-19T01:36:18.664Z,99.90
2023-06-19T01:38:48.946Z,99.90
2023-06-19T01:41:17.543Z,99.90
2023-06-19T01:43:46.135Z,99.90
2023-06-19T01:46:13.665Z,99.90
2023-06-19T01:48:40.977Z,99.90
2023-06-19T01:51:08.558Z,99.90
2023-06-19T01:53:38.345Z,99.90
2023-06-19T01:56:06.431Z,99.90
2023-06-19T01:58:33.644Z,99.90
2023-06-19T02:01:02.386Z,99.90
2023-06-19T02:03:29.704Z,99.90
2023-06-19T02:05:57.301Z,99.90
2023-06-19T02:08:24.455Z,99.90
2023-06-19T02:10:52.014Z,99.90
2023-06-19T02:13:19.201Z,99.90
2023-06-19T02:15:46.627Z,99.90
2023-06-19T02:18:13.910Z,99.90
2023-06-19T02:20:41.432Z,99.90
2023-06-19T02:23:08.598Z,99.90
2023-06-19T02:25:37.260Z,99.90
2023-06-19T02:28:04.884Z,99.90
2023-06-19T02:30:32.405Z,99.90
2023-06-19T02:32:59.595Z,99.90
2023-06-19T02:35:28.002Z,99.90
2023-06-19T02:37:56.863Z,99.90
2023-06-19T02:40:24.722Z,99.90
2023-06-19T02:42:52.543Z,99.90
2023-06-19T02:45:19.958Z,99.90
2023-06-19T02:47:48.953Z,99.90
2023-06-19T02:50:16.528Z,99.90
2023-06-19T02:52:46.201Z,99.90
2023-06-19T02:55:13.763Z,99.90
2023-06-19T02:57:40.941Z,99.90
2023-06-19T03:00:10.446Z,99.90
2023-06-19T03:02:40.743Z,99.90
2023-06-19T03:05:08.607Z,99.90
2023-06-19T03:07:35.750Z,99.90
2023-06-19T03:10:04.076Z,99.90
2023-06-19T03:12:31.458Z,99.90
2023-06-19T03:14:59.009Z,99.90
2023-06-19T03:17:28.038Z,99.90
2023-06-19T03:19:55.633Z,99.90
2023-06-19T03:22:23.620Z,99.90
2023-06-19T03:24:53.474Z,99.90
2023-06-19T03:27:22.652Z,99.90
2023-06-19T03:29:50.516Z,99.90
2023-06-19T03:32:24.245Z,99.90
2023-06-19T03:34:52.107Z,99.90
2023-06-19T03:37:19.466Z,99.90
2023-06-19T03:39:48.855Z,99.90
2023-06-19T03:42:16.061Z,99.90
2023-06-19T03:44:43.526Z,99.90
2023-06-19T03:47:10.842Z,99.90
2023-06-19T03:49:38.334Z,99.90
2023-06-19T03:52:06.100Z,99.90
2023-06-19T03:54:33.586Z,99.90
2023-06-19T03:57:00.960Z,99.90
2023-06-19T03:59:28.691Z,99.90
2023-06-19T04:01:56.059Z,99.90
2023-06-19T04:04:23.592Z,99.90
2023-06-19T04:06:50.833Z,99.90
2023-06-19T04:09:18.521Z,99.90
2023-06-19T04:11:45.788Z,99.90
2023-06-19T04:14:13.948Z,99.90
2023-06-19T04:16:41.119Z,99.90
2023-06-19T04:19:11.192Z,99.90
2023-06-19T04:21:38.349Z,99.90
2023-06-19T04:24:10.275Z,99.90
2023-06-19T04:26:40.411Z,99.90
2023-06-19T04:29:08.527Z,99.90
2023-06-19T04:31:42.896Z,99.90
2023-06-19T04:34:10.544Z,99.90
2023-06-19T04:36:38.350Z,99.90
2023-06-19T04:39:06.528Z,99.90
2023-06-19T04:41:33.789Z,99.90
2023-06-19T04:44:04.258Z,99.90
2023-06-19T04:46:31.521Z,99.90
2023-06-19T04:48:59.037Z,99.90
2023-06-19T04:51:27.516Z,99.90
2023-06-19T04:53:55.082Z,99.90
2023-06-19T04:56:22.242Z,99.90
2023-06-19T04:58:50.405Z,99.90
2023-06-19T05:01:18.143Z,99.90
2023-06-19T05:03:47.201Z,99.90
2023-06-19T05:06:14.364Z,99.90
2023-06-19T05:08:41.924Z,99.90
2023-06-19T05:11:09.081Z,99.90
2023-06-19T05:13:36.563Z,99.90
2023-06-19T05:16:03.849Z,99.90
2023-06-19T05:18:31.556Z,99.90
2023-06-19T05:20:58.993Z,99.90
2023-06-19T05:23:26.757Z,99.90
2023-06-19T05:25:53.972Z,99.90
2023-06-19T05:28:21.476Z,99.90
2023-06-19T05:30:48.635Z,99.90
2023-06-19T05:33:16.987Z,99.90
2023-06-19T05:35:44.681Z,99.90
2023-06-19T05:38:12.171Z,99.90
2023-06-19T05:40:39.427Z,99.90
2023-06-19T05:43:06.906Z,99.90
2023-06-19T05:45:34.299Z,99.90
2023-06-19T05:48:02.704Z,99.90
2023-06-19T05:50:30.117Z,99.90
2023-06-19T05:52:57.633Z,99.90
2023-06-19T05:55:26.261Z,99.90
2023-06-19T05:57:54.398Z,99.90
2023-06-19T06:00:21.903Z,99.90
2023-06-19T06:02:49.867Z,99.90
2023-06-19T06:05:18.575Z,99.90
2023-06-19T06:07:46.438Z,99.90
2023-06-19T06:10:13.740Z,99.90
2023-06-19T06:12:41.351Z,99.90
2023-06-19T06:15:09.304Z,99.90
2023-06-19T06:17:36.963Z,99.90
2023-06-19T06:20:10.578Z,99.90
2023-06-19T06:22:38.305Z,99.90
2023-06-19T06:25:05.845Z,99.90
2023-06-19T06:27:33.758Z,99.90
2023-06-19T06:30:01.790Z,99.90
2023-06-19T06:32:30.188Z,99.90
2023-06-19T06:34:57.355Z,99.90
2023-06-19T06:37:24.902Z,99.90
2023-06-19T06:39:52.443Z,99.90
2023-06-19T06:42:20.133Z,99.90
2023-06-19T06:44:48.165Z,99.90
2023-06-19T06:47:15.852Z,99.90
2023-06-19T06:49:43.109Z,99.90
2023-06-19T06:52:10.768Z,99.90
2023-06-19T06:54:37.920Z,99.90
2023-06-19T06:57:06.513Z,99.90
2023-06-19T06:59:33.716Z,99.90
2023-06-19T07:02:01.160Z,99.90
2023-06-19T07:04:28.468Z,99.90
2023-06-19T07:06:56.102Z,99.90
2023-06-19T07:09:23.323Z,99.90
2023-06-19T07:11:53.487Z,99.90
2023-06-19T07:14:21.602Z,99.90
2023-06-19T07:16:49.919Z,99.90
2023-06-19T07:19:17.129Z,99.90
2023-06-19T07:21:45.073Z,99.90
2023-06-19T07:24:12.301Z,99.90
2023-06-19T07:26:39.827Z,99.90
2023-06-19T07:29:07.047Z,99.90
2023-06-19T07:31:34.622Z,99.90
2023-06-19T07:34:01.874Z,99.90
2023-06-19T07:36:30.475Z,99.90
2023-06-19T07:38:58.219Z,99.90
2023-06-19T07:41:25.733Z,99.90
2023-06-19T07:43:52.878Z,99.90
2023-06-19T07:46:20.459Z,99.90
2023-06-19T07:48:47.761Z,99.90
2023-06-19T07:51:15.377Z,99.90
2023-06-19T07:53:44.479Z,99.90
2023-06-19T07:56:12.079Z,99.90
2023-06-19T07:58:39.302Z,99.90
2023-06-19T08:01:06.827Z,99.90
2023-06-19T08:03:34.142Z,99.90
2023-06-19T08:06:01.762Z,99.90
2023-06-19T08:08:28.991Z,99.90
2023-06-19T08:10:56.675Z,99.90
2023-06-19T08:13:24.622Z,99.90
2023-06-19T08:15:52.053Z,99.90
2023-06-19T08:18:19.318Z,99.90
2023-06-19T08:20:46.957Z,99.90
2023-06-19T08:23:14.148Z,99.90
2023-06-19T08:25:41.759Z,99.90
2023-06-19T08:28:09.745Z,99.90
2023-06-19T08:30:37.170Z,99.90
2023-06-19T08:33:04.467Z,99.90
2023-06-19T08:35:32.098Z,99.90
2023-06-19T08:37:59.393Z,99.90
2023-06-19T08:40:27.217Z,99.90
2023-06-19T08:42:54.980Z,99.90
2023-06-19T08:45:22.636Z,99.90
2023-06-19T08:47:50.409Z,99.90
2023-06-19T08:50:18.068Z,99.90
2023-06-19T08:52:45.516Z,99.60
2023-06-19T08:55:13.244Z,95.60
2023-06-19T08:57:41.276Z,95.50
2023-06-19T09:00:12.971Z,93.80
2023-06-19T09:02:52.421Z,94.00
2023-06-19T09:05:28.945Z,94.60
2023-06-19T09:07:58.833Z,96.00
2023-06-19T09:10:26.678Z,95.40
2023-06-19T09:13:01.360Z,95.50
2023-06-19T09:15:35.398Z,95.00
2023-06-19T09:18:10.383Z,94.10
2023-06-19T09:20:45.679Z,93.90
2023-06-19T09:23:14.131Z,94.10
2023-06-19T09:25:48.368Z,93.40
2023-06-19T09:28:26.258Z,93.40
2023-06-19T09:30:57.558Z,92.40
2023-06-19T09:33:27.131Z,92.60
2023-06-19T09:35:56.724Z,92.90
2023-06-19T09:38:32.323Z,92.10
2023-06-19T09:41:04.040Z,91.90
2023-06-19T09:43:45.198Z,91.60
2023-06-19T09:46:18.000Z,91.90
2023-06-19T09:48:47.553Z,92.20
2023-06-19T09:51:44.820Z,91.20
2023-06-19T09:54:13.548Z,91.20
2023-06-19T09:56:41.297Z,90.80
2023-06-19T09:59:10.760Z,90.10
2023-06-19T10:01:38.635Z,88.70
2023-06-19T10:04:08.191Z,89.50
2023-06-19T10:06:47.065Z,87.90
2023-06-19T10:09:19.371Z,88.20
2023-06-19T10:11:48.611Z,86.70
2023-06-19T10:14:18.896Z,86.80
2023-06-19T10:16:47.290Z,85.50
2023-06-19T10:19:19.088Z,83.30
2023-06-19T10:21:52.606Z,82.60
2023-06-19T10:24:21.857Z,80.80
2023-06-19T10:27:03.431Z,79.20
2023-06-19T10:29:41.536Z,79.30
2023-06-19T10:32:11.996Z,80.50
2023-06-19T10:34:39.254Z,78.80
2023-06-19T10:37:07.004Z,76.30
2023-06-19T10:39:34.199Z,75.00
2023-06-19T10:42:02.556Z,74.30
2023-06-19T10:44:30.521Z,75.30
2023-06-19T10:46:57.967Z,70.70
2023-06-19T10:49:26.924Z,67.90
2023-06-19T10:52:00.052Z,65.50
2023-06-19T10:54:28.962Z,65.10
2023-06-19T10:56:58.625Z,66.10
2023-06-19T10:59:26.094Z,63.70
2023-06-19T11:01:54.086Z,63.50
2023-06-19T11:04:21.348Z,63.50
2023-06-19T11:06:49.311Z,64.40
2023-06-19T11:09:16.642Z,64.50
2023-06-19T11:11:49.106Z,64.20
2023-06-19T11:14:18.155Z,64.40
2023-06-19T11:16:49.309Z,64.50
2023-06-19T11:19:22.581Z,64.30
2023-06-19T11:21:52.427Z,65.00
2023-06-19T11:24:21.458Z,65.40
2023-06-19T11:26:51.356Z,65.00
2023-06-19T11:29:24.317Z,65.00
2023-06-19T11:31:54.960Z,64.50
2023-06-19T11:34:33.119Z,64.00
2023-06-19T11:37:00.616Z,62.60
2023-06-19T11:39:28.962Z,64.10
2023-06-19T11:41:59.436Z,63.10
2023-06-19T11:44:27.398Z,62.60
2023-06-19T11:46:59.887Z,62.30
2023-06-19T11:49:29.387Z,62.60
2023-06-19T11:51:57.077Z,62.90
2023-06-19T11:54:24.693Z,61.40
2023-06-19T11:56:52.142Z,61.70
2023-06-19T11:59:19.382Z,61.20
2023-06-19T12:01:46.894Z,61.10
2023-06-19T12:04:15.220Z,60.80
2023-06-19T12:06:43.323Z,61.00
2023-06-19T12:09:11.033Z,61.00
2023-06-19T12:11:38.526Z,61.10
2023-06-19T12:14:05.769Z,59.60
2023-06-19T12:16:33.311Z,59.50
2023-06-19T12:19:00.640Z,60.30
2023-06-19T12:21:36.372Z,58.90
2023-06-19T12:24:06.128Z,59.30
2023-06-19T12:26:37.939Z,56.80
2023-06-19T12:29:06.572Z,56.10
2023-06-19T12:31:35.168Z,56.10
2023-06-19T12:34:08.128Z,55.40
2023-06-19T12:36:41.364Z,55.60
2023-06-19T12:39:15.853Z,56.20
2023-06-19T12:41:43.376Z,56.10
2023-06-19T12:44:11.025Z,56.30
2023-06-19T12:46:38.940Z,54.20
2023-06-19T12:49:06.410Z,53.70
2023-06-19T12:51:35.637Z,52.60
2023-06-19T12:54:02.931Z,50.10
2023-06-19T12:56:31.133Z,49.10
2023-06-19T12:58:58.338Z,47.70
2023-06-19T13:01:25.841Z,48.20
2023-06-19T13:03:53.167Z,48.30
2023-06-19T13:06:20.737Z,47.90
2023-06-19T13:08:48.120Z,47.60
2023-06-19T13:11:15.595Z,47.30
2023-06-19T13:13:42.750Z,47.00
2023-06-19T13:16:13.077Z,46.60
2023-06-19T13:18:42.121Z,46.00
2023-06-19T13:21:09.584Z,45.80
2023-06-19T13:23:36.956Z,45.40
2023-06-19T13:26:05.226Z,44.10
2023-06-19T13:28:32.431Z,44.60
2023-06-19T13:31:00.823Z,43.90
2023-06-19T13:33:29.309Z,43.70
2023-06-19T13:35:56.821Z,44.00
2023-06-19T13:38:24.130Z,44.00
2023-06-19T13:40:51.561Z,44.20
2023-06-19T13:43:19.302Z,43.80
2023-06-19T13:45:46.908Z,43.80
2023-06-19T13:48:14.214Z,42.80
2023-06-19T13:50:42.240Z,42.50
2023-06-19T13:53:09.922Z,42.90
2023-06-19T13:55:37.442Z,43.80
2023-06-19T13:58:04.741Z,43.20
2023-06-19T14:00:32.726Z,43.20
2023-06-19T14:02:59.949Z,42.60
2023-06-19T14:05:27.721Z,42.60
2023-06-19T14:07:56.015Z,43.20
2023-06-19T14:10:23.818Z,42.90
2023-06-19T14:12:51.197Z,43.20
2023-06-19T14:15:18.696Z,43.30
2023-06-19T14:17:46.042Z,42.50
2023-06-19T14:20:13.914Z,41.70
2023-06-19T14:22:41.200Z,41.60
2023-06-19T14:25:09.212Z,42.20
2023-06-19T14:27:36.500Z,42.90
2023-06-19T14:30:05.839Z,42.30
2023-06-19T14:32:33.140Z,42.10
2023-06-19T14:35:00.635Z,42.70
2023-06-19T14:37:28.111Z,42.60
2023-06-19T14:39:56.069Z,42.80
2023-06-19T14:42:23.954Z,43.20
2023-06-19T14:44:51.670Z,42.40
2023-06-19T14:47:19.266Z,42.80
2023-06-19T14:49:46.700Z,42.60
2023-06-19T14:52:13.900Z,42.40
2023-06-19T14:54:41.323Z,42.40
2023-06-19T14:57:08.559Z,41.80
2023-06-19T14:59:36.108Z,42.30
2023-06-19T15:02:07.832Z,41.90
2023-06-19T15:04:35.369Z,41.70
2023-06-19T15:07:06.226Z,41.70
2023-06-19T15:09:33.737Z,41.40
2023-06-19T15:12:01.139Z,41.80
2023-06-19T15:14:28.676Z,41.50
2023-06-19T15:16:55.925Z,41.60
2023-06-19T15:19:25.060Z,41.10
2023-06-19T15:21:52.387Z,41.10
2023-06-19T15:24:19.920Z,41.60
2023-06-19T15:26:47.268Z,42.20
2023-06-19T15:29:14.744Z,41.70
2023-06-19T15:31:42.123Z,40.90
2023-06-19T15:34:09.668Z,40.70
2023-06-19T15:36:36.956Z,40.90
2023-06-19T15:39:04.491Z,41.30
2023-06-19T15:41:31.676Z,41.80
2023-06-19T15:43:59.432Z,42.20
2023-06-19T15:46:26.669Z,42.80
2023-06-19T15:48:54.402Z,43.60
2023-06-19T15:51:21.617Z,43.60
2023-06-19T15:53:49.385Z,43.90
2023-06-19T15:56:16.572Z,44.50
2023-06-19T15:58:44.089Z,45.00
2023-06-19T16:01:11.299Z,45.20
2023-06-19T16:03:39.012Z,45.60
2023-06-19T16:06:08.546Z,45.50
2023-06-19T16:08:36.694Z,45.60
2023-06-19T16:11:06.064Z,45.20
2023-06-19T16:13:33.962Z,44.40
2023-06-19T16:16:01.327Z,44.00
2023-06-19T16:18:28.882Z,43.80
2023-06-19T16:20:56.153Z,43.50
2023-06-19T16:23:23.620Z,43.40
2023-06-19T16:25:50.812Z,42.80
2023-06-19T16:28:18.410Z,43.00
2023-06-19T16:30:45.709Z,43.30
2023-06-19T16:33:13.353Z,43.60
2023-06-19T16:35:40.662Z,44.20
2023-06-19T16:38:08.181Z,44.90
2023-06-19T16:40:37.809Z,45.60
2023-06-19T16:43:05.575Z,46.50
2023-06-19T16:45:32.790Z,46.70
2023-06-19T16:48:00.416Z,46.80
2023-06-19T16:50:28.010Z,45.90
2023-06-19T16:52:55.636Z,45.70
2023-06-19T16:55:23.912Z,45.60
2023-06-19T16:57:51.723Z,45.50
2023-06-19T17:00:19.979Z,45.30
2023-06-19T17:02:48.616Z,45.60
2023-06-19T17:05:16.076Z,45.50
2023-06-19T17:07:43.549Z,45.90
2023-06-19T17:10:13.635Z,46.30
2023-06-19T17:12:41.582Z,46.60
2023-06-19T17:15:09.337Z,46.80
2023-06-19T17:17:37.138Z,46.90
2023-06-19T17:20:06.135Z,47.10
2023-06-19T17:22:33.714Z,47.10
2023-06-19T17:25:00.979Z,47.20
2023-06-19T17:27:28.546Z,47.60
2023-06-19T17:29:55.782Z,48.00
2023-06-19T17:32:23.301Z,48.60
2023-06-19T17:34:50.686Z,49.90
2023-06-19T17:37:18.246Z,50.10
2023-06-19T17:39:45.457Z,50.80
2023-06-19T17:42:13.071Z,51.30
2023-06-19T17:44:40.361Z,52.00
2023-06-19T17:47:07.918Z,52.50
2023-06-19T17:49:35.190Z,52.90
2023-06-19T17:52:02.735Z,53.40
2023-06-19T17:54:29.933Z,53.90
2023-06-19T17:56:57.973Z,54.30
2023-06-19T17:59:25.278Z,54.70
2023-06-19T18:01:52.922Z,55.10
2023-06-19T18:04:20.078Z,55.40
2023-06-19T18:06:47.583Z,56.40
2023-06-19T18:09:14.875Z,56.40
2023-06-19T18:11:42.407Z,56.70
2023-06-19T18:14:09.595Z,56.90
2023-06-19T18:16:38.565Z,56.80
2023-06-19T18:19:06.058Z,56.90
2023-06-19T18:21:33.671Z,57.20
2023-06-19T18:24:04.096Z,57.30
2023-06-19T18:26:32.648Z,58.20
2023-06-19T18:29:00.449Z,58.20
2023-06-19T18:31:28.001Z,58.50
2023-06-19T18:33:55.711Z,58.80
2023-06-19T18:36:23.407Z,59.40
2023-06-19T18:38:50.605Z,59.70
2023-06-19T18:41:18.144Z,59.80
2023-06-19T18:43:45.430Z,60.10
2023-06-19T18:46:12.902Z,60.60
2023-06-19T18:48:42.061Z,61.10
2023-06-19T18:51:09.498Z,61.40
2023-06-19T18:53:36.725Z,62.10
2023-06-19T18:56:04.574Z,62.60
2023-06-19T18:58:31.881Z,62.80
2023-06-19T19:00:59.654Z,63.50
2023-06-19T19:03:28.011Z,63.90
2023-06-19T19:05:55.537Z,64.30
2023-06-19T19:08:24.097Z,65.10
2023-06-19T19:10:51.569Z,65.20
2023-06-19T19:13:18.854Z,65.80
2023-06-19T19:15:46.328Z,66.40
2023-06-19T19:18:13.692Z,66.90
2023-06-19T19:20:41.200Z,67.20
2023-06-19T19:23:09.595Z,67.20
2023-06-19T19:25:37.228Z,67.50
2023-06-19T19:28:06.830Z,68.20
2023-06-19T19:30:34.862Z,68.70
2023-06-19T19:33:02.317Z,69.30
2023-06-19T19:35:29.878Z,69.60
2023-06-19T19:37:57.022Z,71.00
2023-06-19T19:40:24.917Z,72.50
2023-06-19T19:42:52.322Z,73.60
2023-06-19T19:45:19.770Z,75.00
2023-06-19T19:47:47.010Z,77.40
2023-06-19T19:50:14.577Z,79.90
2023-06-19T19:52:41.768Z,82.20
2023-06-19T19:55:12.192Z,84.90
2023-06-19T19:57:39.414Z,88.40
2023-06-19T20:00:08.352Z,91.10
2023-06-19T20:02:35.644Z,92.40
2023-06-19T20:05:03.517Z,93.60
2023-06-19T20:07:30.719Z,94.70
2023-06-19T20:09:58.666Z,95.70
2023-06-19T20:12:26.155Z,97.10
2023-06-19T20:14:55.067Z,98.30
2023-06-19T20:17:24.260Z,99.80
2023-06-19T20:19:51.984Z,99.90
2023-06-19T20:22:19.155Z,99.90
2023-06-19T20:24:46.892Z,99.90
2023-06-19T20:27:17.087Z,99.90
2023-06-19T20:29:44.651Z,99.90
2023-06-19T20:32:11.906Z,99.90
2023-06-19T20:34:40.220Z,99.90
2023-06-19T20:37:07.583Z,99.90
2023-06-19T20:39:35.176Z,99.90
2023-06-19T20:42:03.479Z,99.90
2023-06-19T20:44:31.218Z,99.90
2023-06-19T20:47:01.377Z,99.90
2023-06-19T20:49:29.337Z,99.90
2023-06-19T20:51:56.599Z,99.90
2023-06-19T20:54:24.143Z,99.90
2023-06-19T20:56:51.312Z,99.90
2023-06-19T20:59:18.790Z,99.90
2023-06-19T21:01:46.087Z,99.90
2023-06-19T21:04:13.556Z,99.90
2023-06-19T21:06:40.786Z,99.90
2023-06-19T21:09:09.610Z,99.90
2023-06-19T21:11:37.059Z,99.90
2023-06-19T21:14:04.622Z,99.90
2023-06-19T21:16:31.938Z,99.90
2023-06-19T21:18:59.434Z,99.90
2023-06-19T21:21:26.667Z,99.90
2023-06-19T21:23:54.284Z,99.90
2023-06-19T21:26:21.471Z,99.90
2023-06-19T21:28:48.990Z,99.90
2023-06-19T21:31:16.363Z,99.90
2023-06-19T21:33:44.097Z,99.90
2023-06-19T21:36:11.703Z,99.90
2023-06-19T21:38:39.273Z,99.90
2023-06-19T21:41:06.534Z,99.90
2023-06-19T21:43:34.135Z,99.90
2023-06-19T21:46:01.381Z,99.90
2023-06-19T21:48:29.690Z,99.90
2023-06-19T21:50:56.924Z,99.90
2023-06-19T21:53:24.554Z,99.90
2023-06-19T21:55:51.722Z,99.90
2023-06-19T21:58:19.134Z,99.90
2023-06-19T22:00:46.511Z,99.90
2023-06-19T22:03:14.015Z,99.90
2023-06-19T22:05:41.327Z,99.90
2023-06-19T22:08:08.827Z,99.90
2023-06-19T22:10:35.980Z,99.90
2023-06-19T22:13:03.483Z,99.90
2023-06-19T22:15:30.690Z,99.90
2023-06-19T22:18:01.865Z,99.90
2023-06-19T22:20:29.325Z,99.90
2023-06-19T22:22:56.878Z,99.90
2023-06-19T22:25:24.957Z,99.90
2023-06-19T22:27:55.504Z,99.90
2023-06-19T22:30:23.596Z,99.90
2023-06-19T22:32:51.486Z,99.90
2023-06-19T22:35:19.220Z,99.90
2023-06-19T22:37:47.743Z,99.90
2023-06-19T22:40:15.181Z,99.90
2023-06-19T22:42:42.955Z,99.90
2023-06-19T22:45:11.126Z,99.90
2023-06-19T22:47:39.582Z,99.90
2023-06-19T22:50:11.433Z,99.90
2023-06-19T22:52:39.209Z,99.90
2023-06-19T22:55:06.927Z,99.90
2023-06-19T22:57:37.103Z,99.90
2023-06-19T23:00:13.300Z,99.90
2023-06-19T23:02:43.098Z,99.90
2023-06-19T23:05:11.911Z,99.90
2023-06-19T23:07:41.093Z,99.90
2023-06-19T23:10:11.407Z,99.90
2023-06-19T23:12:38.994Z,99.90
2023-06-19T23:15:09.481Z,99.90
2023-06-19T23:17:37.026Z,99.90
2023-06-19T23:20:06.791Z,99.90
2023-06-19T23:22:34.242Z,99.90
2023-06-19T23:25:01.736Z,99.90
2023-06-19T23:27:29.220Z,99.90
2023-06-19T23:29:56.502Z,99.90
2023-06-19T23:32:24.019Z,99.90
2023-06-19T23:34:51.357Z,99.90
2023-06-19T23:37:18.785Z,99.90
2023-06-19T23:39:45.920Z,99.90
2023-06-19T23:42:13.421Z,99.90
2023-06-19T23:44:40.589Z,99.90
2023-06-19T23:47:08.737Z,99.90
2023-06-19T23:49:36.084Z,99.90
2023-06-19T23:52:03.805Z,99.90
2023-06-19T23:54:30.987Z,99.90
2023-06-19T23:56:58.629Z,99.90
2023-06-19T23:59:25.942Z,99.90
